Time;durP1;ratioP1;P1;durP2;ratioP2;P2;SDS_P1;SDS_P2;PMS_P1;PMS_P2;Temp;Humidity;BMP_temperature;BMP_pressure;BME280_temperature;BME280_humidity;BME280_pressure;Samples;Min_cycle;Max_cycle;Signal;HPM_P1;HPM_P2
2022/03/25 00:00:47;;;;;;;21.47;17.40;;;;;;;;;;5028050;28;20487;-77
2022/03/25 00:03:14;;;;;;;24.97;17.67;;;;;;;;;;5031050;28;20462;-77
2022/03/25 00:05:42;;;;;;;24.50;18.30;;;;;;;;;;5024932;28;20801;-77
2022/03/25 00:08:09;;;;;;;24.13;17.87;;;;;;;;;;5031422;28;20875;-77
2022/03/25 00:10:36;;;;;;;23.57;17.03;;;;;;;;;;5031010;28;20996;-76
2022/03/25 00:13:04;;;;;;;22.60;19.10;;;;;;;;;;5031441;28;20467;-77
2022/03/25 00:15:32;;;;;;;27.47;19.10;;;;;;;;;;5031437;28;20493;-77
2022/03/25 00:17:59;;;;;;;27.03;19.50;;;;;;;;;;5031094;28;20492;-77
2022/03/25 00:20:26;;;;;;;23.07;18.57;;;;;;;;;;5030938;28;20845;-77
2022/03/25 00:22:54;;;;;;;21.40;17.37;;;;;;;;;;5031127;28;20489;-77
2022/03/25 00:25:21;;;;;;;22.90;18.50;;;;;;;;;;5031380;28;20453;-76
2022/03/25 00:27:48;;;;;;;23.90;18.90;;;;;;;;;;5031531;28;20492;-76
2022/03/25 00:30:15;;;;;;;20.30;18.10;;;;;;;;;;5031541;28;20465;-76
2022/03/25 00:32:42;;;;;;;20.73;18.53;;;;;;;;;;5032044;28;20516;-77
2022/03/25 00:35:10;;;;;;;21.33;18.00;;;;;;;;;;5031824;28;20442;-77
2022/03/25 00:37:40;;;;;;;21.53;18.67;;;;;;;;;;5031816;28;20813;-77
2022/03/25 00:40:09;;;;;;;20.57;17.70;;;;;;;;;;5031631;28;20450;-77
2022/03/25 00:42:39;;;;;;;22.00;17.70;;;;;;;;;;5025109;28;20455;-76
2022/03/25 00:45:07;;;;;;;23.13;18.33;;;;;;;;;;5024981;28;20504;-77
2022/03/25 00:47:36;;;;;;;23.90;18.40;;;;;;;;;;5031557;28;20449;-76
2022/03/25 00:50:03;;;;;;;20.17;17.43;;;;;;;;;;5030916;28;20435;-77
2022/03/25 00:52:30;;;;;;;22.27;17.90;;;;;;;;;;5031695;28;20442;-77
2022/03/25 00:54:57;;;;;;;26.37;18.77;;;;;;;;;;5035817;28;20845;-77
2022/03/25 00:57:25;;;;;;;25.53;18.87;;;;;;;;;;5034918;28;20439;-77
2022/03/25 00:59:53;;;;;;;25.03;17.87;;;;;;;;;;5034873;28;20860;-77
2022/03/25 01:02:20;;;;;;;25.40;18.07;;;;;;;;;;5029451;28;20483;-76
2022/03/25 01:04:47;;;;;;;25.43;19.60;;;;;;;;;;5032183;28;21005;-77
2022/03/25 01:07:14;;;;;;;22.80;18.70;;;;;;;;;;5020478;28;20443;-77
2022/03/25 01:09:41;;;;;;;25.00;19.53;;;;;;;;;;5027024;28;20462;-77
2022/03/25 01:12:09;;;;;;;25.00;18.70;;;;;;;;;;5034649;28;20442;-77
2022/03/25 01:14:38;;;;;;;26.83;20.23;;;;;;;;;;5026048;28;20596;-77
2022/03/25 01:17:05;;;;;;;22.57;18.97;;;;;;;;;;5032106;28;20951;-77
2022/03/25 01:19:32;;;;;;;25.13;19.30;;;;;;;;;;5032164;28;20453;-77
2022/03/25 01:21:59;;;;;;;21.10;18.43;;;;;;;;;;5034291;28;20555;-77
2022/03/25 01:24:27;;;;;;;27.97;20.37;;;;;;;;;;5034462;28;20481;-76
2022/03/25 01:26:54;;;;;;;26.27;20.13;;;;;;;;;;5034473;28;20442;-77
2022/03/25 01:29:21;;;;;;;29.23;20.13;;;;;;;;;;5034403;28;20454;-77
2022/03/25 01:31:49;;;;;;;24.53;21.30;;;;;;;;;;5034352;28;20450;-77
2022/03/25 01:34:16;;;;;;;27.23;22.33;;;;;;;;;;5033742;28;20470;-76
2022/03/25 01:36:43;;;;;;;28.47;20.83;;;;;;;;;;5034239;28;20462;-76
2022/03/25 01:39:10;;;;;;;27.13;22.63;;;;;;;;;;5034644;28;20508;-77
2022/03/25 01:41:37;;;;;;;31.03;20.30;;;;;;;;;;5033828;28;20482;-77
2022/03/25 01:44:05;;;;;;;29.10;23.10;;;;;;;;;;5033846;28;20470;-77
2022/03/25 01:46:32;;;;;;;24.60;20.90;;;;;;;;;;5033814;28;20451;-76
2022/03/25 01:49:00;;;;;;;27.43;22.40;;;;;;;;;;5034268;28;20446;-77
2022/03/25 01:51:29;;;;;;;23.80;20.17;;;;;;;;;;5033641;28;20441;-76
2022/03/25 01:54:00;;;;;;;27.73;22.20;;;;;;;;;;5033305;28;20478;-77
2022/03/25 01:56:27;;;;;;;25.77;20.77;;;;;;;;;;5033691;28;21010;-77
2022/03/25 01:58:54;;;;;;;26.00;20.30;;;;;;;;;;5033634;28;20504;-77
2022/03/25 02:01:21;;;;;;;28.53;21.40;;;;;;;;;;5033731;28;20481;-77
2022/03/25 02:03:48;;;;;;;25.27;21.43;;;;;;;;;;5032868;28;20836;-77
2022/03/25 02:06:16;;;;;;;28.07;21.27;;;;;;;;;;5033412;28;20442;-77
2022/03/25 02:08:43;;;;;;;27.00;21.33;;;;;;;;;;5033206;28;20496;-77
2022/03/25 02:11:11;;;;;;;25.13;21.10;;;;;;;;;;5033522;28;20451;-77
2022/03/25 02:13:38;;;;;;;24.80;21.17;;;;;;;;;;5033205;28;20459;-77
2022/03/25 02:16:05;;;;;;;25.43;20.30;;;;;;;;;;5033478;28;20501;-77
2022/03/25 02:18:32;;;;;;;24.50;20.90;;;;;;;;;;5033549;28;20815;-77
2022/03/25 02:21:00;;;;;;;25.60;21.33;;;;;;;;;;5036409;28;20478;-78
2022/03/25 02:23:28;;;;;;;29.00;20.67;;;;;;;;;;5032528;28;20465;-77
2022/03/25 02:25:56;;;;;;;24.83;20.50;;;;;;;;;;5033345;28;20764;-79
2022/03/25 02:28:24;;;;;;;23.83;19.40;;;;;;;;;;5033219;28;20490;-77
2022/03/25 02:30:51;;;;;;;27.90;20.77;;;;;;;;;;5033128;28;20492;-77
2022/03/25 02:33:18;;;;;;;23.97;20.80;;;;;;;;;;5033197;28;20478;-77
2022/03/25 02:35:47;;;;;;;24.40;21.20;;;;;;;;;;5033442;28;20504;-76
2022/03/25 02:38:14;;;;;;;24.83;20.57;;;;;;;;;;5032574;28;20454;-76
2022/03/25 02:40:43;;;;;;;27.07;21.33;;;;;;;;;;5029194;28;20442;-77
2022/03/25 02:43:11;;;;;;;28.97;20.80;;;;;;;;;;5032375;28;20462;-77
2022/03/25 02:45:39;;;;;;;26.93;21.60;;;;;;;;;;5034855;28;20446;-77
2022/03/25 02:48:06;;;;;;;25.63;20.73;;;;;;;;;;5033478;28;20452;-76
2022/03/25 02:50:33;;;;;;;25.40;20.67;;;;;;;;;;5034601;28;20497;-76
2022/03/25 02:53:00;;;;;;;25.90;21.60;;;;;;;;;;5039419;28;20485;-77
2022/03/25 02:55:27;;;;;;;23.63;19.90;;;;;;;;;;5038198;28;20465;-77
2022/03/25 02:57:56;;;;;;;28.50;22.37;;;;;;;;;;5039027;28;20435;-77
2022/03/25 03:00:25;;;;;;;23.63;20.17;;;;;;;;;;5039279;28;20812;-77
2022/03/25 03:02:52;;;;;;;25.53;21.43;;;;;;;;;;5032330;28;20557;-76
2022/03/25 03:05:20;;;;;;;25.17;20.77;;;;;;;;;;5033391;28;20469;-77
2022/03/25 03:07:47;;;;;;;27.57;21.07;;;;;;;;;;5032745;28;20450;-77
2022/03/25 03:10:15;;;;;;;29.23;21.17;;;;;;;;;;5032556;28;20938;-77
2022/03/25 03:12:42;;;;;;;27.20;21.03;;;;;;;;;;5032270;28;20463;-78
2022/03/25 03:15:11;;;;;;;25.87;21.40;;;;;;;;;;5032695;28;20497;-77
2022/03/25 03:17:38;;;;;;;24.63;20.70;;;;;;;;;;5032494;28;20909;-77
2022/03/25 03:20:06;;;;;;;29.80;21.23;;;;;;;;;;5032769;28;20508;-76
2022/03/25 03:22:33;;;;;;;24.90;20.30;;;;;;;;;;5032219;28;20490;-77
2022/03/25 03:25:00;;;;;;;25.70;21.70;;;;;;;;;;5032507;28;20520;-75
2022/03/25 03:27:27;;;;;;;26.23;20.37;;;;;;;;;;5032219;28;20499;-76
2022/03/25 03:29:55;;;;;;;23.17;20.00;;;;;;;;;;5031977;28;20452;-77
2022/03/25 03:32:25;;;;;;;26.47;20.37;;;;;;;;;;5032012;28;20445;-77
2022/03/25 03:34:52;;;;;;;24.90;20.00;;;;;;;;;;5032183;28;20512;-77
2022/03/25 03:37:19;;;;;;;26.80;22.27;;;;;;;;;;5032235;28;20524;-77
2022/03/25 03:39:47;;;;;;;25.90;21.37;;;;;;;;;;5032253;28;20446;-77
2022/03/25 03:42:14;;;;;;;24.80;21.00;;;;;;;;;;5032001;28;21054;-77
2022/03/25 03:44:41;;;;;;;27.43;20.90;;;;;;;;;;5031346;28;20466;-77
2022/03/25 03:47:08;;;;;;;30.67;21.07;;;;;;;;;;5032102;28;20442;-76
2022/03/25 03:49:37;;;;;;;24.20;20.03;;;;;;;;;;5031650;28;20938;-76
2022/03/25 03:52:05;;;;;;;26.07;21.80;;;;;;;;;;5032081;28;20438;-76
2022/03/25 03:54:32;;;;;;;24.53;21.50;;;;;;;;;;5031886;28;20556;-76
2022/03/25 03:57:00;;;;;;;24.17;21.23;;;;;;;;;;5032571;28;20442;-76
2022/03/25 03:59:27;;;;;;;22.83;20.33;;;;;;;;;;5031716;28;20533;-76
2022/03/25 04:01:54;;;;;;;24.83;20.50;;;;;;;;;;5031620;28;20543;-76
2022/03/25 04:04:21;;;;;;;26.60;20.90;;;;;;;;;;5031690;28;20483;-76
2022/03/25 04:06:50;;;;;;;27.33;21.70;;;;;;;;;;5031464;28;20438;-76
2022/03/25 04:09:17;;;;;;;24.67;20.40;;;;;;;;;;5031597;28;20660;-76
2022/03/25 04:11:44;;;;;;;24.47;19.43;;;;;;;;;;5032690;28;20440;-76
2022/03/25 04:14:11;;;;;;;26.30;21.47;;;;;;;;;;5035509;28;20466;-77
2022/03/25 04:16:38;;;;;;;29.80;21.30;;;;;;;;;;5034731;28;20503;-75
2022/03/25 04:19:05;;;;;;;24.40;20.80;;;;;;;;;;5035676;28;20529;-76
2022/03/25 04:21:32;;;;;;;24.17;21.70;;;;;;;;;;5034041;28;20512;-76
2022/03/25 04:24:01;;;;;;;26.03;20.60;;;;;;;;;;5041228;28;20492;-76
2022/03/25 04:26:28;;;;;;;28.60;21.30;;;;;;;;;;5042768;28;20449;-76
2022/03/25 04:28:55;;;;;;;27.50;19.77;;;;;;;;;;5032680;28;20502;-76
2022/03/25 04:31:22;;;;;;;28.20;21.43;;;;;;;;;;5035877;28;20445;-76
2022/03/25 04:33:49;;;;;;;25.37;19.47;;;;;;;;;;5035107;28;20468;-76
2022/03/25 04:36:16;;;;;;;28.17;20.70;;;;;;;;;;5035250;28;20448;-77
2022/03/25 04:38:44;;;;;;;25.07;20.73;;;;;;;;;;5035224;28;20458;-77
2022/03/25 04:41:14;;;;;;;31.73;20.80;;;;;;;;;;5035204;28;20501;-78
2022/03/25 04:43:41;;;;;;;25.87;20.00;;;;;;;;;;5034493;28;21064;-76
2022/03/25 04:46:09;;;;;;;27.23;21.03;;;;;;;;;;5035135;28;20445;-76
2022/03/25 04:48:37;;;;;;;27.50;22.43;;;;;;;;;;5035059;28;20442;-76
2022/03/25 04:51:04;;;;;;;26.07;21.37;;;;;;;;;;5035259;28;20948;-77
2022/03/25 04:53:31;;;;;;;27.97;20.63;;;;;;;;;;5034923;28;20523;-77
2022/03/25 04:55:58;;;;;;;24.83;20.53;;;;;;;;;;5035233;28;20448;-76
2022/03/25 04:58:26;;;;;;;25.00;20.73;;;;;;;;;;5035291;28;20447;-76
2022/03/25 05:00:53;;;;;;;31.13;21.10;;;;;;;;;;5032198;28;20453;-76
2022/03/25 05:03:20;;;;;;;28.43;21.60;;;;;;;;;;5029806;28;20483;-77
2022/03/25 05:05:47;;;;;;;24.30;21.37;;;;;;;;;;5034505;28;20446;-76
2022/03/25 05:08:14;;;;;;;30.07;19.60;;;;;;;;;;5034896;28;20449;-77
2022/03/25 05:10:42;;;;;;;34.63;21.07;;;;;;;;;;5034798;28;20456;-76
2022/03/25 05:13:09;;;;;;;23.97;20.70;;;;;;;;;;5034465;28;20461;-76
2022/03/25 05:15:37;;;;;;;26.57;21.00;;;;;;;;;;5034532;28;20509;-76
2022/03/25 05:18:05;;;;;;;26.53;20.83;;;;;;;;;;5034474;28;20474;-77
2022/03/25 05:20:32;;;;;;;29.93;20.73;;;;;;;;;;5034084;28;20554;-76
2022/03/25 05:22:59;;;;;;;27.97;21.90;;;;;;;;;;5034080;28;20489;-76
2022/03/25 05:25:26;;;;;;;30.23;21.67;;;;;;;;;;5034439;28;20552;-77
2022/03/25 05:27:55;;;;;;;30.13;21.70;;;;;;;;;;5034390;28;20453;-77
2022/03/25 05:30:24;;;;;;;28.10;21.90;;;;;;;;;;5034202;28;20445;-77
2022/03/25 05:32:54;;;;;;;28.93;20.87;;;;;;;;;;5033675;28;21020;-77
2022/03/25 05:35:21;;;;;;;25.37;21.13;;;;;;;;;;5034025;28;20962;-76
2022/03/25 05:37:48;;;;;;;26.27;22.00;;;;;;;;;;5034470;28;20509;-76
2022/03/25 05:40:16;;;;;;;29.73;21.73;;;;;;;;;;5034146;28;20476;-77
2022/03/25 05:42:43;;;;;;;26.63;21.60;;;;;;;;;;5033811;28;20809;-76
2022/03/25 05:45:11;;;;;;;29.60;21.20;;;;;;;;;;5034004;28;20946;-77
2022/03/25 05:47:38;;;;;;;26.40;21.73;;;;;;;;;;5033772;28;20472;-76
2022/03/25 05:50:08;;;;;;;28.70;22.43;;;;;;;;;;5033915;28;20441;-78
2022/03/25 05:52:35;;;;;;;28.40;21.93;;;;;;;;;;5033723;28;20444;-79
2022/03/25 05:55:04;;;;;;;24.93;21.83;;;;;;;;;;5034129;28;20458;-76
2022/03/25 05:57:31;;;;;;;23.70;19.87;;;;;;;;;;5033590;28;20448;-76
2022/03/25 05:59:59;;;;;;;26.30;20.60;;;;;;;;;;5033586;28;20543;-77
2022/03/25 06:02:26;;;;;;;26.20;21.07;;;;;;;;;;5034183;28;21052;-77
2022/03/25 06:04:53;;;;;;;26.00;22.23;;;;;;;;;;5035897;28;20436;-77
2022/03/25 06:07:22;;;;;;;26.40;22.50;;;;;;;;;;5034309;28;20525;-77
2022/03/25 06:09:49;;;;;;;27.13;21.50;;;;;;;;;;5033713;28;20493;-76
2022/03/25 06:12:16;;;;;;;26.07;21.50;;;;;;;;;;5033167;28;20455;-78
2022/03/25 06:14:43;;;;;;;27.20;21.77;;;;;;;;;;5032729;28;20466;-78
2022/03/25 06:17:10;;;;;;;31.87;22.13;;;;;;;;;;5033419;28;20526;-77
2022/03/25 06:19:37;;;;;;;27.60;21.97;;;;;;;;;;5033393;28;20445;-77
2022/03/25 06:22:05;;;;;;;29.30;21.90;;;;;;;;;;5033183;28;20556;-76
2022/03/25 06:24:33;;;;;;;28.50;22.40;;;;;;;;;;5032666;28;21025;-77
2022/03/25 06:27:00;;;;;;;26.57;20.80;;;;;;;;;;5033169;28;20451;-77
2022/03/25 06:29:27;;;;;;;29.87;23.07;;;;;;;;;;5032685;28;20916;-77
2022/03/25 06:31:54;;;;;;;30.20;20.60;;;;;;;;;;5033126;28;20497;-77
2022/03/25 06:34:23;;;;;;;30.07;22.10;;;;;;;;;;5032667;28;20551;-77
2022/03/25 06:36:50;;;;;;;30.03;21.60;;;;;;;;;;5033016;28;20453;-77
2022/03/25 06:39:17;;;;;;;28.50;20.40;;;;;;;;;;5032924;28;20493;-77
2022/03/25 06:41:45;;;;;;;28.70;22.30;;;;;;;;;;5033071;28;20445;-78
2022/03/25 06:44:12;;;;;;;30.53;23.77;;;;;;;;;;5030969;28;20482;-79
2022/03/25 06:46:39;;;;;;;30.83;21.70;;;;;;;;;;5031928;28;20443;-77
2022/03/25 06:49:07;;;;;;;27.00;22.40;;;;;;;;;;5033465;28;20455;-79
2022/03/25 06:51:34;;;;;;;33.20;22.90;;;;;;;;;;5032736;28;20445;-78
2022/03/25 06:54:01;;;;;;;26.73;21.77;;;;;;;;;;5032964;28;20461;-77
2022/03/25 06:56:29;;;;;;;32.17;23.20;;;;;;;;;;5032564;28;20504;-77
2022/03/25 06:58:57;;;;;;;34.77;22.50;;;;;;;;;;5024283;28;20941;-79
2022/03/25 07:01:25;;;;;;;25.97;21.90;;;;;;;;;;5032750;28;20479;-79
2022/03/25 07:03:52;;;;;;;32.87;23.67;;;;;;;;;;5028471;28;20917;-77
2022/03/25 07:06:23;;;;;;;25.73;22.23;;;;;;;;;;5032159;28;20447;-78
2022/03/25 07:08:53;;;;;;;30.00;22.43;;;;;;;;;;5032386;28;20442;-77
2022/03/25 07:11:21;;;;;;;28.10;22.67;;;;;;;;;;5033123;28;20450;-78
2022/03/25 07:13:48;;;;;;;31.87;23.20;;;;;;;;;;5032106;28;21031;-78
2022/03/25 07:16:17;;;;;;;30.17;21.77;;;;;;;;;;5032464;28;20453;-78
2022/03/25 07:18:44;;;;;;;31.23;23.13;;;;;;;;;;5032238;28;20485;-77
2022/03/25 07:21:12;;;;;;;33.00;22.50;;;;;;;;;;5032026;28;20442;-78
2022/03/25 07:23:39;;;;;;;30.60;23.67;;;;;;;;;;5031897;28;20509;-78
2022/03/25 07:26:07;;;;;;;29.63;23.03;;;;;;;;;;5031813;28;20442;-77
2022/03/25 07:28:34;;;;;;;32.30;23.10;;;;;;;;;;5032200;28;20830;-77
2022/03/25 07:31:01;;;;;;;38.67;22.90;;;;;;;;;;5032311;28;20934;-78
2022/03/25 07:33:30;;;;;;;31.33;23.67;;;;;;;;;;5031815;28;20466;-79
2022/03/25 07:35:57;;;;;;;38.53;24.40;;;;;;;;;;5031349;28;20449;-77
2022/03/25 07:38:24;;;;;;;36.77;24.13;;;;;;;;;;5031679;28;20945;-79
2022/03/25 07:40:51;;;;;;;27.60;22.77;;;;;;;;;;5031766;28;20544;-78
2022/03/25 07:43:18;;;;;;;28.43;24.07;;;;;;;;;;5031643;28;20494;-77
2022/03/25 07:45:45;;;;;;;29.10;22.47;;;;;;;;;;5032108;28;20499;-78
2022/03/25 07:48:12;;;;;;;34.57;24.00;;;;;;;;;;5031939;28;20442;-77
2022/03/25 07:50:41;;;;;;;30.20;23.43;;;;;;;;;;5031687;28;20709;-78
2022/03/25 07:53:09;;;;;;;30.97;23.57;;;;;;;;;;5031421;28;20596;-77
2022/03/25 07:55:36;;;;;;;33.33;24.60;;;;;;;;;;5031771;28;20458;-78
2022/03/25 07:58:03;;;;;;;33.37;25.10;;;;;;;;;;5031830;28;20511;-77
2022/03/25 08:00:30;;;;;;;33.03;23.80;;;;;;;;;;5031829;28;20446;-77
2022/03/25 08:02:57;;;;;;;29.20;24.13;;;;;;;;;;5030556;28;20490;-78
2022/03/25 08:05:24;;;;;;;28.87;23.10;;;;;;;;;;5032090;28;20528;-77
2022/03/25 08:07:54;;;;;;;31.70;25.93;;;;;;;;;;5032067;28;20500;-77
2022/03/25 08:10:22;;;;;;;30.60;24.87;;;;;;;;;;5031744;28;20453;-77
2022/03/25 08:12:49;;;;;;;29.27;24.37;;;;;;;;;;5031765;28;20494;-78
2022/03/25 08:15:16;;;;;;;33.70;23.93;;;;;;;;;;5031458;28;20854;-78
2022/03/25 08:17:50;;;;;;;32.10;26.63;;;;;;;;;;5031850;28;20489;-78
2022/03/25 08:20:21;;;;;;;35.80;24.93;;;;;;;;;;5023537;28;20537;-77
2022/03/25 08:22:48;;;;;;;33.33;25.50;;;;;;;;;;5031259;28;20844;-79
2022/03/25 08:28:04;;;;;;;28.80;25.40;;;;;;;;;;5014160;28;20532;-78
2022/03/25 08:30:31;;;;;;;39.30;25.87;;;;;;;;;;5031958;28;20434;-77
2022/03/25 08:32:58;;;;;;;33.03;25.10;;;;;;;;;;5032011;28;20549;-78
2022/03/25 08:35:25;;;;;;;32.73;24.80;;;;;;;;;;5031642;28;20494;-77
2022/03/25 08:37:53;;;;;;;39.43;27.13;;;;;;;;;;5031358;28;21003;-78
2022/03/25 08:40:21;;;;;;;30.77;24.80;;;;;;;;;;5030792;28;20442;-77
2022/03/25 08:42:48;;;;;;;39.77;25.67;;;;;;;;;;5030973;28;20467;-77
2022/03/25 08:45:16;;;;;;;31.60;25.90;;;;;;;;;;5031227;28;20717;-78
2022/03/25 08:47:43;;;;;;;32.90;25.77;;;;;;;;;;5036819;28;20526;-77
2022/03/25 08:50:12;;;;;;;34.50;26.43;;;;;;;;;;5042744;28;20589;-77
2022/03/25 08:52:39;;;;;;;36.70;27.20;;;;;;;;;;5043210;28;20443;-78
2022/03/25 08:55:07;;;;;;;31.70;26.90;;;;;;;;;;5043027;28;20438;-78
2022/03/25 08:57:35;;;;;;;32.00;26.30;;;;;;;;;;5043832;28;20439;-78
2022/03/25 09:00:02;;;;;;;36.43;25.60;;;;;;;;;;5043272;28;20497;-78
2022/03/25 09:02:29;;;;;;;35.20;26.53;;;;;;;;;;5042039;28;20450;-78
2022/03/25 09:04:56;;;;;;;33.03;26.93;;;;;;;;;;5037053;28;20478;-80
2022/03/25 09:07:23;;;;;;;37.50;28.20;;;;;;;;;;5030867;28;20447;-77
2022/03/25 09:09:50;;;;;;;32.73;25.17;;;;;;;;;;5030403;28;20443;-78
2022/03/25 09:12:17;;;;;;;35.97;27.47;;;;;;;;;;5030146;28;20458;-77
2022/03/25 09:14:46;;;;;;;32.33;26.37;;;;;;;;;;5033182;28;20470;-77
2022/03/25 09:17:13;;;;;;;34.47;27.90;;;;;;;;;;5034574;28;20446;-78
2022/03/25 09:19:40;;;;;;;36.63;29.20;;;;;;;;;;5034576;28;20991;-77
2022/03/25 09:22:07;;;;;;;35.27;29.30;;;;;;;;;;5034573;28;20508;-78
2022/03/25 09:24:34;;;;;;;40.13;28.80;;;;;;;;;;5034847;28;20490;-77
2022/03/25 09:27:01;;;;;;;34.60;28.10;;;;;;;;;;5036115;28;20501;-78
2022/03/25 09:29:28;;;;;;;36.73;28.53;;;;;;;;;;5036090;28;20443;-78
2022/03/25 09:31:57;;;;;;;37.73;27.13;;;;;;;;;;5035108;28;20450;-77
2022/03/25 09:37:09;;;;;;;34.80;27.40;;;;;;;;;;5029357;28;20492;-77
2022/03/25 09:39:36;;;;;;;35.97;28.30;;;;;;;;;;5032061;28;20516;-77
2022/03/25 09:42:05;;;;;;;31.70;27.53;;;;;;;;;;5037203;28;20477;-77
2022/03/25 09:44:33;;;;;;;31.47;27.83;;;;;;;;;;5034182;28;20913;-78
2022/03/25 09:47:02;;;;;;;32.60;27.80;;;;;;;;;;5033898;28;20501;-78
2022/03/25 09:49:29;;;;;;;36.47;28.50;;;;;;;;;;5034045;28;20500;-78
2022/03/25 09:51:57;;;;;;;34.40;28.50;;;;;;;;;;5034006;28;20492;-78
2022/03/25 09:54:24;;;;;;;39.57;29.80;;;;;;;;;;5033685;28;20515;-77
2022/03/25 09:56:51;;;;;;;33.43;28.63;;;;;;;;;;5033719;28;20446;-78
2022/03/25 09:59:19;;;;;;;36.57;29.20;;;;;;;;;;5033881;28;20821;-76
2022/03/25 10:01:46;;;;;;;37.00;28.80;;;;;;;;;;5034546;28;20443;-77
2022/03/25 10:04:28;;;;;;;32.83;28.10;;;;;;;;;;5033355;28;20482;-77
2022/03/25 10:06:57;;;;;;;32.20;28.43;;;;;;;;;;5013620;28;20477;-78
2022/03/25 10:09:24;;;;;;;37.23;28.50;;;;;;;;;;5013884;28;20443;-77
2022/03/25 10:11:51;;;;;;;32.97;27.07;;;;;;;;;;5013825;28;20466;-79
2022/03/25 10:14:19;;;;;;;32.00;28.40;;;;;;;;;;5013380;28;20495;-78
2022/03/25 10:16:47;;;;;;;37.43;28.27;;;;;;;;;;5013721;28;20447;-77
2022/03/25 10:22:01;;;;;;;33.63;29.97;;;;;;;;;;5013763;28;20513;-77
2022/03/25 10:24:38;;;;;;;35.20;29.37;;;;;;;;;;5012791;28;20488;-78
2022/03/25 10:27:06;;;;;;;42.13;30.50;;;;;;;;;;5013016;28;20978;-79
2022/03/25 10:29:34;;;;;;;32.83;27.67;;;;;;;;;;5023376;28;20960;-79
2022/03/25 10:32:05;;;;;;;35.00;30.40;;;;;;;;;;5027784;28;20447;-77
2022/03/25 10:34:32;;;;;;;36.73;31.20;;;;;;;;;;5032792;28;20565;-77
2022/03/25 10:37:01;;;;;;;34.63;29.63;;;;;;;;;;5020839;28;20451;-80
2022/03/25 10:39:29;;;;;;;34.30;27.80;;;;;;;;;;5029566;28;20525;-78
2022/03/25 10:41:59;;;;;;;34.53;30.03;;;;;;;;;;5033241;28;20442;-79
2022/03/25 10:44:36;;;;;;;35.03;28.93;;;;;;;;;;5032946;28;20516;-77
2022/03/25 10:47:20;;;;;;;32.60;29.20;;;;;;;;;;5033294;28;20442;-78
2022/03/25 10:49:48;;;;;;;33.93;29.43;;;;;;;;;;5032759;28;20889;-77
2022/03/25 10:52:23;;;;;;;33.40;30.00;;;;;;;;;;5032973;28;20462;-77
2022/03/25 10:54:50;;;;;;;35.00;29.80;;;;;;;;;;5032356;28;20929;-77
2022/03/25 10:57:18;;;;;;;33.80;29.83;;;;;;;;;;5018704;28;20452;-78
2022/03/25 10:59:58;;;;;;;38.63;31.30;;;;;;;;;;5025369;28;20447;-77
2022/03/25 11:02:25;;;;;;;33.77;30.10;;;;;;;;;;5024093;28;20577;-78
2022/03/25 11:04:52;;;;;;;34.53;30.87;;;;;;;;;;5023933;28;21017;-78
2022/03/25 11:07:22;;;;;;;34.17;30.10;;;;;;;;;;5024834;28;20446;-77
2022/03/25 11:09:51;;;;;;;33.20;29.07;;;;;;;;;;5031486;28;20546;-79
2022/03/25 11:12:19;;;;;;;33.00;29.40;;;;;;;;;;5032074;28;20446;-77
2022/03/25 11:14:46;;;;;;;31.10;27.70;;;;;;;;;;5042563;28;20495;-76
2022/03/25 11:17:14;;;;;;;32.77;29.33;;;;;;;;;;5042032;28;20439;-77
2022/03/25 11:19:41;;;;;;;33.80;29.60;;;;;;;;;;5047266;28;20454;-78
2022/03/25 11:22:09;;;;;;;32.00;28.63;;;;;;;;;;5043253;28;20443;-77
2022/03/25 11:24:37;;;;;;;32.97;29.10;;;;;;;;;;5043126;28;20477;-79
2022/03/25 11:27:09;;;;;;;35.63;28.37;;;;;;;;;;5048498;28;20447;-78
2022/03/25 11:29:37;;;;;;;30.97;27.73;;;;;;;;;;5041210;28;20462;-78
2022/03/25 11:32:08;;;;;;;34.03;27.23;;;;;;;;;;5036581;28;20443;-77
2022/03/25 11:34:40;;;;;;;31.97;27.03;;;;;;;;;;5033713;28;21107;-77
2022/03/25 11:37:16;;;;;;;32.43;28.93;;;;;;;;;;5033031;28;20863;-78
2022/03/25 11:40:09;;;;;;;30.03;26.93;;;;;;;;;;5033524;28;20474;-78
2022/03/25 11:42:39;;;;;;;30.20;26.40;;;;;;;;;;5031862;28;20862;-78
2022/03/25 11:45:31;;;;;;;29.23;26.40;;;;;;;;;;5032207;28;20557;-78
2022/03/25 11:48:13;;;;;;;33.53;25.67;;;;;;;;;;5032039;28;20824;-77
2022/03/25 11:50:40;;;;;;;34.60;30.80;;;;;;;;;;5031524;28;20873;-77
2022/03/25 11:53:22;;;;;;;30.50;26.43;;;;;;;;;;5032505;28;20516;-76
2022/03/25 11:55:53;;;;;;;30.70;27.33;;;;;;;;;;5033412;28;20957;-76
2022/03/25 11:58:22;;;;;;;28.83;25.90;;;;;;;;;;5033204;28;20493;-77
2022/03/25 12:00:51;;;;;;;30.37;26.90;;;;;;;;;;5033321;28;20852;-78
2022/03/25 12:03:19;;;;;;;31.03;27.97;;;;;;;;;;5034483;28;20498;-78
2022/03/25 12:05:58;;;;;;;30.90;27.87;;;;;;;;;;5036316;28;20504;-78
2022/03/25 12:08:27;;;;;;;33.87;30.47;;;;;;;;;;5037594;28;20510;-78
2022/03/25 12:10:55;;;;;;;29.87;26.67;;;;;;;;;;5034226;28;20802;-79
2022/03/25 12:13:24;;;;;;;28.67;25.97;;;;;;;;;;5031089;28;20466;-77
2022/03/25 12:15:52;;;;;;;28.77;25.87;;;;;;;;;;5031517;28;20450;-80
2022/03/25 12:18:38;;;;;;;29.87;26.93;;;;;;;;;;5031769;28;21032;-77
2022/03/25 12:21:05;;;;;;;28.90;26.00;;;;;;;;;;5031068;28;20516;-77
2022/03/25 12:23:32;;;;;;;30.00;26.80;;;;;;;;;;5030578;28;20524;-79
2022/03/25 12:25:59;;;;;;;29.20;26.50;;;;;;;;;;5022695;28;20478;-79
2022/03/25 12:28:28;;;;;;;31.20;28.00;;;;;;;;;;5023358;28;20500;-79
2022/03/25 12:30:55;;;;;;;29.33;26.43;;;;;;;;;;5031785;28;20453;-77
2022/03/25 12:33:22;;;;;;;28.90;26.00;;;;;;;;;;5031057;28;20992;-78
2022/03/25 12:35:50;;;;;;;28.93;26.00;;;;;;;;;;5031585;28;20446;-77
2022/03/25 12:38:22;;;;;;;27.80;25.00;;;;;;;;;;5031489;28;20821;-78
2022/03/25 12:40:50;;;;;;;30.17;26.37;;;;;;;;;;5031335;28;20931;-78
2022/03/25 12:43:17;;;;;;;38.13;27.53;;;;;;;;;;5031808;28;20473;-77
2022/03/25 12:45:48;;;;;;;30.00;27.00;;;;;;;;;;5032144;28;20478;-77
2022/03/25 12:48:16;;;;;;;30.17;27.00;;;;;;;;;;5032355;28;20437;-78
2022/03/25 12:50:44;;;;;;;29.00;26.00;;;;;;;;;;5036499;28;20508;-79
2022/03/25 12:53:12;;;;;;;30.80;27.70;;;;;;;;;;5035179;28;20543;-77
2022/03/25 12:55:39;;;;;;;31.37;28.27;;;;;;;;;;5035697;28;20442;-77
2022/03/25 12:58:07;;;;;;;30.57;27.57;;;;;;;;;;5035605;28;20442;-77
2022/03/25 13:00:36;;;;;;;29.90;26.97;;;;;;;;;;5035412;28;20929;-77
2022/03/25 13:03:04;;;;;;;31.40;28.10;;;;;;;;;;5035774;28;20471;-79
2022/03/25 13:05:32;;;;;;;30.87;27.67;;;;;;;;;;5035295;28;20532;-78
2022/03/25 13:08:00;;;;;;;34.10;29.43;;;;;;;;;;5035162;28;20448;-77
2022/03/25 13:10:28;;;;;;;28.93;26.07;;;;;;;;;;5035165;28;20909;-78
2022/03/25 13:12:56;;;;;;;31.10;27.80;;;;;;;;;;5034733;28;20470;-77
2022/03/25 13:15:26;;;;;;;33.43;27.70;;;;;;;;;;5034846;28;20557;-77
2022/03/25 13:17:54;;;;;;;30.47;27.27;;;;;;;;;;5033399;28;21192;-76
2022/03/25 13:20:23;;;;;;;31.40;28.10;;;;;;;;;;5033878;28;20807;-77
2022/03/25 13:22:54;;;;;;;31.30;28.00;;;;;;;;;;5033569;28;20480;-76
2022/03/25 13:25:25;;;;;;;29.10;26.03;;;;;;;;;;5034241;28;20489;-77
2022/03/25 13:27:52;;;;;;;26.43;23.73;;;;;;;;;;5034250;28;20540;-76
2022/03/25 13:30:20;;;;;;;24.43;22.00;;;;;;;;;;5033760;28;20451;-76
2022/03/25 13:32:47;;;;;;;24.10;21.80;;;;;;;;;;5033637;28;20463;-78
2022/03/25 13:35:15;;;;;;;25.60;22.97;;;;;;;;;;5034300;28;20443;-76
2022/03/25 13:37:43;;;;;;;22.50;20.33;;;;;;;;;;5034183;28;20942;-78
2022/03/25 13:40:29;;;;;;;31.63;24.23;;;;;;;;;;5034559;28;20443;-77
2022/03/25 13:42:57;;;;;;;20.93;18.83;;;;;;;;;;5040531;28;20534;-77
2022/03/25 13:45:25;;;;;;;23.60;21.13;;;;;;;;;;5038964;28;20501;-77
2022/03/25 13:47:58;;;;;;;28.60;25.70;;;;;;;;;;5034631;28;20458;-78
2022/03/25 13:50:25;;;;;;;30.47;27.47;;;;;;;;;;5034642;28;20512;-77
2022/03/25 13:53:09;;;;;;;30.77;27.77;;;;;;;;;;5036787;28;20470;-77
2022/03/25 13:55:37;;;;;;;27.87;25.03;;;;;;;;;;5035562;28;20490;-78
2022/03/25 13:58:04;;;;;;;24.67;22.17;;;;;;;;;;5036164;28;20442;-77
2022/03/25 14:00:32;;;;;;;27.27;24.67;;;;;;;;;;5034300;28;20556;-77
2022/03/25 14:02:59;;;;;;;25.67;22.97;;;;;;;;;;5034296;28;20755;-79
2022/03/25 14:05:26;;;;;;;30.77;27.67;;;;;;;;;;5033849;28;20532;-77
2022/03/25 14:07:54;;;;;;;30.93;27.73;;;;;;;;;;5033265;28;20461;-77
2022/03/25 14:10:22;;;;;;;30.20;27.20;;;;;;;;;;5034143;28;20446;-77
2022/03/25 14:12:56;;;;;;;29.17;26.37;;;;;;;;;;5033284;28;20459;-76
2022/03/25 14:15:26;;;;;;;31.67;28.53;;;;;;;;;;5033666;28;20493;-77
2022/03/25 14:17:54;;;;;;;32.07;28.90;;;;;;;;;;5033900;28;20529;-76
2022/03/25 14:20:22;;;;;;;34.63;31.13;;;;;;;;;;5033452;28;20903;-77
2022/03/25 14:22:50;;;;;;;33.30;30.10;;;;;;;;;;5033203;28;20753;-77
2022/03/25 14:25:18;;;;;;;33.30;29.87;;;;;;;;;;5033094;28;20891;-77
2022/03/25 14:27:48;;;;;;;32.30;29.00;;;;;;;;;;5033630;28;20442;-77
2022/03/25 14:30:15;;;;;;;32.40;29.30;;;;;;;;;;5033175;28;20868;-77